Weather observations for the past three days for
Seward
Imperial (Metric)
Date Time (akdt) Wind (mph) Vis. (mi.) Weather Sky Cond. Temperature (ºF) Relative Humidity Wind Chill (°F) Heat Index (°F) Pressure Precipitation (in)
Air Dwpt 6 hour altimeter (in) sea level (mb) 1 hr 3 hr 6 hr
Max. Min.
30 22:53 N 9 10.00 Fair CLR 55.9 42.1 60% 29.68 1004.9
30 21:53 NE 9 10.00 Partly Cloudy SCT110 57 41 66 57 55% 29.68 1005.1
30 20:53 N 10 G 20 10.00 Mostly Cloudy BKN110 57.9 41 53% 29.7 1005.7
30 19:53 NE 8 10.00 Overcast OVC110 59 41 51% 29.71 1006.1
30 18:53 N 14 G 20 10.00 Mostly Cloudy BKN120 61 37 41% 29.74 1006.9
30 17:53 NW 14 G 24 10.00 Fair CLR 63 36 37% 29.76 1007.7
30 16:53 NW 16 G 25 10.00 Fair CLR 64 36 35% 29.78 1008.4
30 15:53 NW 9 G 21 10.00 Fair CLR 66 37 66 59 34% 29.79 1008.7
30 14:53 NW 9 G 20 10.00 Fair CLR 64.9 36 34% 29.81 1009.3
30 13:53 N 10 G 21 10.00 Fair CLR 64.9 35.1 33% 29.82 1009.9
30 12:53 N 13 G 24 10.00 Fair CLR 66 37.9 36% 29.84 1010.4
30 11:53 N 14 G 24 10.00 Fair CLR 64 39 40% 29.86 1011.1
30 10:53 N 14 10.00 Fair CLR 61 39 44% 29.87 1011.6
30 09:53 N 16 G 28 10.00 Fair CLR 59 37 59 54 44% 29.88 1011.8
30 08:53 NE 16 G 26 10.00 Fair CLR 55.9 37 49% 29.88 1011.9
30 07:53 N 16 G 30 10.00 Fair CLR 55 36 49% 29.88 1011.9
30 06:53 NE 15 G 25 10.00 Fair CLR 55 36 49% 29.86 1011.2
30 05:53 N 15 G 24 10.00 Fair CLR 55 36 49% 29.86 1011.1
30 04:53 N 9 G 22 10.00 Fair CLR 54 37.9 55% 29.87 1011.3
30 03:53 N 15 10.00 Fair CLR 55 39.9 61 54 57% 29.84 1010.6
30 02:53 N 14 G 23 10.00 Fair CLR 55.9 41 57% 29.83 1010.3
30 01:53 N 12 G 31 10.00 Fair CLR 57 42.1 58% 29.83 1010.0
30 00:53 NE 16 G 25 10.00 Fair CLR 57 43 60% 29.82 1009.7
29 23:53 N 13 G 21 10.00 Fair CLR 57.9 43 58% 29.8 1009.2
29 22:53 N 13 10.00 Fair CLR 57.9 43 58% 29.79 1008.8
29 21:53 N 10 G 25 10.00 Fair CLR 60.1 42.1 66.9 60.1 52% 29.77 1008.1
29 20:53 NW 18 G 37 10.00 Fair CLR 62.1 39.9 44% 29.75 1007.5
29 19:53 NW 20 G 38 10.00 Fair CLR 63 39 41% 29.73 1006.9
29 18:53 NW 21 G 36 10.00 Fair and Breezy CLR 64.9 37.9 37% 29.72 1006.3
29 17:53 NW 20 G 37 10.00 Fair CLR 66 37.9 36% 29.71 1006.1
29 16:53 NW 18 G 33 10.00 Fair CLR 66.9 37 33% 29.71 1005.9
29 15:53 NW 17 G 31 10.00 Fair CLR 66.9 41 66.9 57 39% 29.7 1005.7
29 14:53 NW 20 G 31 10.00 Fair CLR 66.9 43 42% 29.7 1005.7
29 13:53 NW 9 G 22 10.00 Fair CLR 66.9 44.1 44% 29.7 1005.7
29 12:53 N 12 G 23 10.00 Fair CLR 64.9 48 54% 29.71 1005.9
29 11:53 N 12 G 22 10.00 Fair CLR 63 50 63% 29.71 1006.0
29 10:53 N 13 G 22 10.00 Partly Cloudy SCT055 60.1 48 65% 29.72 1006.5
29 09:53 NE 13 G 22 10.00 A Few Clouds FEW055 57 48.9 57 50 74% 29.72 1006.4
29 08:53 N 12 10.00 Mostly Cloudy BKN050 53.1 48.9 86% 29.72 1006.3
29 07:53 N 10 10.00 Mostly Cloudy BKN050 51.1 48.9 92% 29.71 1006.0
29 06:53 N 8 10.00 Overcast OVC047 51.1 48.9 92% 29.71 1006.0
29 05:53 N 8 10.00 Overcast OVC050 52 50 93% 29.7 1005.8
29 04:53 N 8 10.00 Overcast FEW037 BKN060 OVC120 51.1 50 96% 29.7 1005.7
29 03:53 N 3 10.00 Overcast OVC029 50 50 53.1 50 100% 29.69 1005.4 0.03
29 02:53 N 5 10.00 Overcast BKN025 OVC032 51.1 50 96% 29.7 1005.8
29 01:53 Calm 9.00 Light Rain BKN020 OVC025 51.1 50 96% 29.71 1006.2 0.01
29 00:53 Calm 10.00 Overcast BKN016 OVC021 52 51.1 97% 29.71 1006.2 0.01 0.02
28 23:53 Calm 4.00 Light Rain Fog/Mist OVC013 52 52 100% 29.72 1006.3 0.01
28 22:53 Calm 9.00 Light Rain OVC003 52 52 100% 29.72 1006.5
28 21:53 SE 5 10.00 Overcast OVC013 51.1 51.1 55 51.1 100% 29.73 1006.7 0.01 0.02
28 20:53 S 3 10.00 Overcast OVC012 53.1 52 96% 29.75 1007.3
28 19:53 SE 6 9.00 Overcast FEW016 OVC029 53.1 52 96% 29.75 1007.5
28 18:53 S 10 6.00 Light Rain Fog/Mist OVC029 53.1 53.1 100% 29.77 1007.9 0.01 0.01
28 17:53 S 10 8.00 Light Rain OVC027 54 52 93% 29.78 1008.3
28 16:53 SE 9 10.00 Overcast FEW014 OVC019 55 51.1 87% 29.78 1008.5
28 15:53 S 6 10.00 Overcast FEW019 BKN026 OVC034 54 52 55 51.1 93% 29.8 1008.9 0.09
28 14:53 Calm 8.00 Overcast FEW005 OVC011 53.1 52 96% 29.81 1009.6 0.01
28 13:53 Calm 2.50 Light Rain Fog/Mist BKN009 OVC016 51.1 50 96% 29.85 1010.8 0.01
28 12:53 S 3 10.00 Overcast BKN015 BKN020 OVC033 53.1 51.1 93% 29.85 1010.9 0.07
28 11:53 Calm 10.00 Overcast OVC015 53.1 51.1 93% 29.85 1010.7
28 10:53 Calm 9.00 Light Rain BKN009 OVC013 53.1 52 96% 29.86 1011.1 0.07
28 09:53 SE 3 3.00 Rain Fog/Mist BKN008 OVC035 52 51.1 53.1 51.1 97% 29.88 1011.9 0.1 0.29
28 08:53 S 7 5.00 Light Rain Fog/Mist SCT028 OVC036 52 50 93% 29.88 1011.8 0.03
28 07:53 S 3 10.00 Overcast OVC031 51.1 50 96% 29.89 1012.1 0.03
28 06:53 S 5 10.00 Light Rain OVC037 52 50 93% 29.9 1012.5 0.01 0.13
28 05:53 S 10 6.00 Light Rain Fog/Mist SCT025 OVC036 52 50 93% 29.91 1012.9 0.06
28 04:53 S 13 4.00 Rain Fog/Mist OVC033 52 50 93% 29.91 1012.9 0.06
28 03:53 S 12 9.00 Light Rain SCT031 SCT039 OVC055 53.1 50 57 53.1 89% 29.92 1013.1 0.04 0.06
28 02:53 S 14 8.00 Light Rain OVC090 53.1 50 89% 29.94 1013.7 0.02
28 01:53 S 10 10.00 Light Rain BKN060 OVC090 55 48 77% 29.95 1014.1
28 00:53 SW 7 10.00 Overcast BKN065 OVC080 55 50 83% 29.96 1014.5
27 23:53 S 7 10.00 Overcast OVC085 55 48.9 80% 29.96 1014.7
Date Time (akdt) Wind (mph) Vis. (mi.) Weather Sky Cond. Air Dwpt Max. Min. Relative Humidity Wind Chill (°F) Heat Index (°F) altimeter (in) sea level (mb) 1 hr 3 hr 6 hr
6 hour
Temperature (ºF) Pressure Precipitation (in)